sensor_id;sensor_type;location;lat;lon;timestamp;temperature;humidity
6948;DHT22;3513;47.664;9.162;2024-02-21T00:02:05;4.30;99.90
6948;DHT22;3513;47.664;9.162;2024-02-21T00:04:31;4.30;99.90
6948;DHT22;3513;47.664;9.162;2024-02-21T00:06:56;4.30;99.90
6948;DHT22;3513;47.664;9.162;2024-02-21T00:09:22;4.20;99.90
6948;DHT22;3513;47.664;9.162;2024-02-21T00:11:47;4.10;99.90
6948;DHT22;3513;47.664;9.162;2024-02-21T00:14:13;4.00;99.90
6948;DHT22;3513;47.664;9.162;2024-02-21T00:16:38;4.10;99.90
6948;DHT22;3513;47.664;9.162;2024-02-21T00:19:04;4.10;99.90
6948;DHT22;3513;47.664;9.162;2024-02-21T00:21:30;4.10;99.90
6948;DHT22;3513;47.664;9.162;2024-02-21T00:23:55;4.10;99.90
6948;DHT22;3513;47.664;9.162;2024-02-21T00:26:21;4.20;99.90
6948;DHT22;3513;47.664;9.162;2024-02-21T00:28:46;4.10;99.90
6948;DHT22;3513;47.664;9.162;2024-02-21T00:31:12;4.10;99.90
6948;DHT22;3513;47.664;9.162;2024-02-21T00:33:38;4.00;99.90
6948;DHT22;3513;47.664;9.162;2024-02-21T00:36:03;3.90;99.90
6948;DHT22;3513;47.664;9.162;2024-02-21T00:38:29;3.80;99.90
6948;DHT22;3513;47.664;9.162;2024-02-21T00:40:54;3.80;99.90
6948;DHT22;3513;47.664;9.162;2024-02-21T00:43:20;3.80;99.90
6948;DHT22;3513;47.664;9.162;2024-02-21T00:45:49;3.90;99.90
6948;DHT22;3513;47.664;9.162;2024-02-21T00:48:14;4.00;99.90
6948;DHT22;3513;47.664;9.162;2024-02-21T00:50:40;3.90;99.90
6948;DHT22;3513;47.664;9.162;2024-02-21T00:53:05;4.00;99.90
6948;DHT22;3513;47.664;9.162;2024-02-21T00:55:31;3.90;99.90
6948;DHT22;3513;47.664;9.162;2024-02-21T00:57:56;3.90;99.90
6948;DHT22;3513;47.664;9.162;2024-02-21T01:00:22;3.80;99.90
6948;DHT22;3513;47.664;9.162;2024-02-21T01:02:48;3.80;99.90
6948;DHT22;3513;47.664;9.162;2024-02-21T01:05:13;3.70;99.90
6948;DHT22;3513;47.664;9.162;2024-02-21T01:07:39;3.80;99.90
6948;DHT22;3513;47.664;9.162;2024-02-21T01:10:05;3.80;99.90
6948;DHT22;3513;47.664;9.162;2024-02-21T01:12:31;3.70;99.90
6948;DHT22;3513;47.664;9.162;2024-02-21T01:14:56;3.70;99.90
6948;DHT22;3513;47.664;9.162;2024-02-21T01:17:22;3.60;99.90
6948;DHT22;3513;47.664;9.162;2024-02-21T01:19:47;3.70;99.90
6948;DHT22;3513;47.664;9.162;2024-02-21T01:22:13;3.70;99.90
6948;DHT22;3513;47.664;9.162;2024-02-21T01:24:40;3.90;99.90
6948;DHT22;3513;47.664;9.162;2024-02-21T01:27:05;4.00;99.90
6948;DHT22;3513;47.664;9.162;2024-02-21T01:29:31;3.90;99.90
6948;DHT22;3513;47.664;9.162;2024-02-21T01:31:56;3.80;99.90
6948;DHT22;3513;47.664;9.162;2024-02-21T01:34:22;3.80;99.90
6948;DHT22;3513;47.664;9.162;2024-02-21T01:36:48;3.80;99.90
6948;DHT22;3513;47.664;9.162;2024-02-21T01:39:13;3.80;99.90
6948;DHT22;3513;47.664;9.162;2024-02-21T01:41:39;3.80;99.90
6948;DHT22;3513;47.664;9.162;2024-02-21T01:44:04;3.80;99.90
6948;DHT22;3513;47.664;9.162;2024-02-21T01:46:30;3.80;99.90
6948;DHT22;3513;47.664;9.162;2024-02-21T01:48:57;3.80;99.90
6948;DHT22;3513;47.664;9.162;2024-02-21T01:51:23;3.80;99.90
6948;DHT22;3513;47.664;9.162;2024-02-21T01:53:50;4.00;99.90
6948;DHT22;3513;47.664;9.162;2024-02-21T01:56:17;3.90;99.90
6948;DHT22;3513;47.664;9.162;2024-02-21T01:58:42;3.90;99.90
6948;DHT22;3513;47.664;9.162;2024-02-21T02:01:10;3.90;99.90
6948;DHT22;3513;47.664;9.162;2024-02-21T02:03:35;4.00;99.90
6948;DHT22;3513;47.664;9.162;2024-02-21T02:06:02;4.00;99.90
6948;DHT22;3513;47.664;9.162;2024-02-21T02:08:28;4.00;99.90
6948;DHT22;3513;47.664;9.162;2024-02-21T02:10:53;4.10;99.90
6948;DHT22;3513;47.664;9.162;2024-02-21T02:13:19;4.10;99.90
6948;DHT22;3513;47.664;9.162;2024-02-21T02:15:46;4.00;99.90
6948;DHT22;3513;47.664;9.162;2024-02-21T02:18:13;4.00;99.90
6948;DHT22;3513;47.664;9.162;2024-02-21T02:20:39;4.00;99.90
6948;DHT22;3513;47.664;9.162;2024-02-21T02:23:10;4.00;99.90
6948;DHT22;3513;47.664;9.162;2024-02-21T02:25:37;3.90;99.90
6948;DHT22;3513;47.664;9.162;2024-02-21T02:28:04;3.90;99.90
6948;DHT22;3513;47.664;9.162;2024-02-21T02:30:32;3.80;99.90
6948;DHT22;3513;47.664;9.162;2024-02-21T02:32:59;3.80;99.90
6948;DHT22;3513;47.664;9.162;2024-02-21T02:35:24;3.90;99.90
6948;DHT22;3513;47.664;9.162;2024-02-21T02:37:50;3.90;99.90
6948;DHT22;3513;47.664;9.162;2024-02-21T02:40:17;3.90;99.90
6948;DHT22;3513;47.664;9.162;2024-02-21T02:42:43;3.90;99.90
6948;DHT22;3513;47.664;9.162;2024-02-21T02:45:09;4.00;99.90
6948;DHT22;3513;47.664;9.162;2024-02-21T02:47:35;3.90;99.90
6948;DHT22;3513;47.664;9.162;2024-02-21T02:50:01;4.00;99.90
6948;DHT22;3513;47.664;9.162;2024-02-21T02:52:26;4.10;99.90
6948;DHT22;3513;47.664;9.162;2024-02-21T02:54:52;4.20;99.90
6948;DHT22;3513;47.664;9.162;2024-02-21T02:57:20;4.20;99.90
6948;DHT22;3513;47.664;9.162;2024-02-21T02:59:49;4.30;99.90
6948;DHT22;3513;47.664;9.162;2024-02-21T03:02:15;4.30;99.90
6948;DHT22;3513;47.664;9.162;2024-02-21T03:04:40;4.30;99.90
6948;DHT22;3513;47.664;9.162;2024-02-21T03:07:06;4.30;99.90
6948;DHT22;3513;47.664;9.162;2024-02-21T03:09:32;4.40;99.90
6948;DHT22;3513;47.664;9.162;2024-02-21T03:11:57;4.40;99.90
6948;DHT22;3513;47.664;9.162;2024-02-21T03:14:28;4.30;99.90
6948;DHT22;3513;47.664;9.162;2024-02-21T03:16:54;4.30;99.90
6948;DHT22;3513;47.664;9.162;2024-02-21T03:19:20;4.30;99.90
6948;DHT22;3513;47.664;9.162;2024-02-21T03:21:46;4.50;99.90
6948;DHT22;3513;47.664;9.162;2024-02-21T03:24:12;4.20;99.90
6948;DHT22;3513;47.664;9.162;2024-02-21T03:26:37;4.20;99.90
6948;DHT22;3513;47.664;9.162;2024-02-21T03:29:03;4.20;99.90
6948;DHT22;3513;47.664;9.162;2024-02-21T03:31:29;4.20;99.90
6948;DHT22;3513;47.664;9.162;2024-02-21T03:33:55;4.20;99.90
6948;DHT22;3513;47.664;9.162;2024-02-21T03:36:20;4.30;99.90
6948;DHT22;3513;47.664;9.162;2024-02-21T03:38:46;4.30;99.90
6948;DHT22;3513;47.664;9.162;2024-02-21T03:41:13;4.30;99.90
6948;DHT22;3513;47.664;9.162;2024-02-21T03:43:38;4.40;99.90
6948;DHT22;3513;47.664;9.162;2024-02-21T03:46:04;4.40;99.90
6948;DHT22;3513;47.664;9.162;2024-02-21T03:48:30;4.40;99.90
6948;DHT22;3513;47.664;9.162;2024-02-21T03:50:55;4.40;99.90
6948;DHT22;3513;47.664;9.162;2024-02-21T03:53:21;4.40;99.90
6948;DHT22;3513;47.664;9.162;2024-02-21T03:55:47;4.40;99.90
6948;DHT22;3513;47.664;9.162;2024-02-21T03:58:12;4.30;99.90
6948;DHT22;3513;47.664;9.162;2024-02-21T04:00:38;4.30;99.90
6948;DHT22;3513;47.664;9.162;2024-02-21T04:03:04;4.30;99.90
6948;DHT22;3513;47.664;9.162;2024-02-21T04:05:30;4.30;99.90
6948;DHT22;3513;47.664;9.162;2024-02-21T04:07:56;4.20;99.90
6948;DHT22;3513;47.664;9.162;2024-02-21T04:10:21;4.20;99.90
6948;DHT22;3513;47.664;9.162;2024-02-21T04:12:47;4.20;99.90
6948;DHT22;3513;47.664;9.162;2024-02-21T04:15:16;4.20;99.90
6948;DHT22;3513;47.664;9.162;2024-02-21T04:17:41;4.20;99.90
6948;DHT22;3513;47.664;9.162;2024-02-21T04:20:14;4.20;99.90
6948;DHT22;3513;47.664;9.162;2024-02-21T04:22:40;4.20;99.90
6948;DHT22;3513;47.664;9.162;2024-02-21T04:25:06;4.20;99.90
6948;DHT22;3513;47.664;9.162;2024-02-21T04:27:31;4.30;99.90
6948;DHT22;3513;47.664;9.162;2024-02-21T04:29:57;4.30;99.90
6948;DHT22;3513;47.664;9.162;2024-02-21T04:32:23;4.40;99.90
6948;DHT22;3513;47.664;9.162;2024-02-21T04:34:48;4.40;99.90
6948;DHT22;3513;47.664;9.162;2024-02-21T04:37:14;4.30;99.90
6948;DHT22;3513;47.664;9.162;2024-02-21T04:39:40;4.40;99.90
6948;DHT22;3513;47.664;9.162;2024-02-21T04:42:06;4.40;99.90
6948;DHT22;3513;47.664;9.162;2024-02-21T04:44:31;4.40;99.90
6948;DHT22;3513;47.664;9.162;2024-02-21T04:46:57;4.50;99.90
6948;DHT22;3513;47.664;9.162;2024-02-21T04:49:22;4.70;99.90
6948;DHT22;3513;47.664;9.162;2024-02-21T04:51:48;4.70;99.90
6948;DHT22;3513;47.664;9.162;2024-02-21T04:54:13;4.60;99.90
6948;DHT22;3513;47.664;9.162;2024-02-21T04:56:39;4.50;99.90
6948;DHT22;3513;47.664;9.162;2024-02-21T04:59:04;4.40;99.90
6948;DHT22;3513;47.664;9.162;2024-02-21T05:01:30;4.40;99.90
6948;DHT22;3513;47.664;9.162;2024-02-21T05:03:56;4.30;99.90
6948;DHT22;3513;47.664;9.162;2024-02-21T05:06:22;4.30;99.90
6948;DHT22;3513;47.664;9.162;2024-02-21T05:08:47;4.30;99.90
6948;DHT22;3513;47.664;9.162;2024-02-21T05:11:13;4.20;99.90
6948;DHT22;3513;47.664;9.162;2024-02-21T05:13:38;4.30;99.90
6948;DHT22;3513;47.664;9.162;2024-02-21T05:16:05;4.20;99.90
6948;DHT22;3513;47.664;9.162;2024-02-21T05:18:30;4.00;99.90
6948;DHT22;3513;47.664;9.162;2024-02-21T05:20:56;4.00;99.90
6948;DHT22;3513;47.664;9.162;2024-02-21T05:23:21;3.90;99.90
6948;DHT22;3513;47.664;9.162;2024-02-21T05:25:47;3.90;99.90
6948;DHT22;3513;47.664;9.162;2024-02-21T05:28:13;4.00;99.90
6948;DHT22;3513;47.664;9.162;2024-02-21T05:30:38;4.00;99.90
6948;DHT22;3513;47.664;9.162;2024-02-21T05:33:05;4.00;99.90
6948;DHT22;3513;47.664;9.162;2024-02-21T05:35:31;3.90;99.90
6948;DHT22;3513;47.664;9.162;2024-02-21T05:37:56;3.90;99.90
6948;DHT22;3513;47.664;9.162;2024-02-21T05:40:22;3.80;99.90
6948;DHT22;3513;47.664;9.162;2024-02-21T05:42:48;3.80;99.90
6948;DHT22;3513;47.664;9.162;2024-02-21T05:45:14;3.70;99.90
6948;DHT22;3513;47.664;9.162;2024-02-21T05:47:41;3.70;99.90
6948;DHT22;3513;47.664;9.162;2024-02-21T05:50:06;3.70;99.90
6948;DHT22;3513;47.664;9.162;2024-02-21T05:52:32;3.70;99.90
6948;DHT22;3513;47.664;9.162;2024-02-21T05:54:57;3.70;99.90
6948;DHT22;3513;47.664;9.162;2024-02-21T05:57:23;3.70;99.90
6948;DHT22;3513;47.664;9.162;2024-02-21T05:59:49;3.80;99.90
6948;DHT22;3513;47.664;9.162;2024-02-21T06:02:14;4.10;99.90
6948;DHT22;3513;47.664;9.162;2024-02-21T06:04:40;4.20;99.90
6948;DHT22;3513;47.664;9.162;2024-02-21T06:07:05;4.10;99.90
6948;DHT22;3513;47.664;9.162;2024-02-21T06:09:31;4.10;99.90
6948;DHT22;3513;47.664;9.162;2024-02-21T06:11:57;4.10;99.90
6948;DHT22;3513;47.664;9.162;2024-02-21T06:14:23;4.00;99.90
6948;DHT22;3513;47.664;9.162;2024-02-21T06:16:48;3.80;99.90
6948;DHT22;3513;47.664;9.162;2024-02-21T06:19:14;3.70;99.90
6948;DHT22;3513;47.664;9.162;2024-02-21T06:21:39;3.70;99.90
6948;DHT22;3513;47.664;9.162;2024-02-21T06:24:05;3.70;99.90
6948;DHT22;3513;47.664;9.162;2024-02-21T06:26:31;3.70;99.90
6948;DHT22;3513;47.664;9.162;2024-02-21T06:28:56;3.70;99.90
6948;DHT22;3513;47.664;9.162;2024-02-21T06:31:22;3.60;99.90
6948;DHT22;3513;47.664;9.162;2024-02-21T06:33:48;3.70;99.90
6948;DHT22;3513;47.664;9.162;2024-02-21T06:36:13;3.70;99.90
6948;DHT22;3513;47.664;9.162;2024-02-21T06:38:39;3.80;99.90
6948;DHT22;3513;47.664;9.162;2024-02-21T06:41:04;3.90;99.90
6948;DHT22;3513;47.664;9.162;2024-02-21T06:43:30;3.80;99.90
6948;DHT22;3513;47.664;9.162;2024-02-21T06:45:56;3.90;99.90
6948;DHT22;3513;47.664;9.162;2024-02-21T06:48:22;3.90;99.90
6948;DHT22;3513;47.664;9.162;2024-02-21T06:50:48;3.90;99.90
6948;DHT22;3513;47.664;9.162;2024-02-21T06:53:13;3.80;99.90
6948;DHT22;3513;47.664;9.162;2024-02-21T06:55:39;3.80;99.90
6948;DHT22;3513;47.664;9.162;2024-02-21T06:58:05;3.90;99.90
6948;DHT22;3513;47.664;9.162;2024-02-21T07:00:33;3.90;99.90
6948;DHT22;3513;47.664;9.162;2024-02-21T07:02:59;4.00;99.90
6948;DHT22;3513;47.664;9.162;2024-02-21T07:05:24;4.00;99.90
6948;DHT22;3513;47.664;9.162;2024-02-21T07:07:50;4.20;99.90
6948;DHT22;3513;47.664;9.162;2024-02-21T07:10:16;4.20;99.90
6948;DHT22;3513;47.664;9.162;2024-02-21T07:12:41;4.20;99.90
6948;DHT22;3513;47.664;9.162;2024-02-21T07:15:10;4.10;99.90
6948;DHT22;3513;47.664;9.162;2024-02-21T07:17:35;4.10;99.90
6948;DHT22;3513;47.664;9.162;2024-02-21T07:20:01;4.10;99.90
6948;DHT22;3513;47.664;9.162;2024-02-21T07:22:27;4.10;99.90
6948;DHT22;3513;47.664;9.162;2024-02-21T07:24:52;4.10;99.90
6948;DHT22;3513;47.664;9.162;2024-02-21T07:27:18;4.20;99.90
6948;DHT22;3513;47.664;9.162;2024-02-21T07:29:43;4.20;99.90
6948;DHT22;3513;47.664;9.162;2024-02-21T07:32:12;4.50;99.90
6948;DHT22;3513;47.664;9.162;2024-02-21T07:34:38;4.60;99.90
6948;DHT22;3513;47.664;9.162;2024-02-21T07:37:03;4.70;99.90
6948;DHT22;3513;47.664;9.162;2024-02-21T07:39:29;4.70;99.90
6948;DHT22;3513;47.664;9.162;2024-02-21T07:41:55;4.60;99.90
6948;DHT22;3513;47.664;9.162;2024-02-21T07:44:21;4.60;99.90
6948;DHT22;3513;47.664;9.162;2024-02-21T07:46:46;4.60;99.90
6948;DHT22;3513;47.664;9.162;2024-02-21T07:49:12;4.70;99.90
6948;DHT22;3513;47.664;9.162;2024-02-21T07:51:37;4.80;99.90
6948;DHT22;3513;47.664;9.162;2024-02-21T07:54:03;5.00;99.90
6948;DHT22;3513;47.664;9.162;2024-02-21T07:56:29;5.00;99.90
6948;DHT22;3513;47.664;9.162;2024-02-21T07:58:55;5.10;99.90
6948;DHT22;3513;47.664;9.162;2024-02-21T08:01:21;5.20;99.90
6948;DHT22;3513;47.664;9.162;2024-02-21T08:03:47;5.30;99.90
6948;DHT22;3513;47.664;9.162;2024-02-21T08:06:13;5.20;99.90
6948;DHT22;3513;47.664;9.162;2024-02-21T08:08:39;5.20;99.90
6948;DHT22;3513;47.664;9.162;2024-02-21T08:11:05;5.20;99.90
6948;DHT22;3513;47.664;9.162;2024-02-21T08:13:31;5.20;99.90
6948;DHT22;3513;47.664;9.162;2024-02-21T08:15:56;5.20;99.90
6948;DHT22;3513;47.664;9.162;2024-02-21T08:18:22;5.20;99.90
6948;DHT22;3513;47.664;9.162;2024-02-21T08:20:48;5.40;99.90
6948;DHT22;3513;47.664;9.162;2024-02-21T08:23:18;5.60;99.90
6948;DHT22;3513;47.664;9.162;2024-02-21T08:25:44;5.70;99.90
6948;DHT22;3513;47.664;9.162;2024-02-21T08:28:10;5.70;99.90
6948;DHT22;3513;47.664;9.162;2024-02-21T08:30:35;5.50;99.90
6948;DHT22;3513;47.664;9.162;2024-02-21T08:33:01;5.50;99.90
6948;DHT22;3513;47.664;9.162;2024-02-21T08:35:26;5.60;99.90
6948;DHT22;3513;47.664;9.162;2024-02-21T08:37:53;5.70;99.90
6948;DHT22;3513;47.664;9.162;2024-02-21T08:40:19;5.70;99.90
6948;DHT22;3513;47.664;9.162;2024-02-21T08:42:46;5.70;99.90
6948;DHT22;3513;47.664;9.162;2024-02-21T08:45:12;5.90;99.90
6948;DHT22;3513;47.664;9.162;2024-02-21T08:51:10;5.80;99.90
6948;DHT22;3513;47.664;9.162;2024-02-21T08:57:31;5.40;99.90
6948;DHT22;3513;47.664;9.162;2024-02-21T09:02:41;6.00;99.90
6948;DHT22;3513;47.664;9.162;2024-02-21T09:05:11;6.10;99.90
6948;DHT22;3513;47.664;9.162;2024-02-21T09:07:36;6.10;99.90
6948;DHT22;3513;47.664;9.162;2024-02-21T09:10:02;6.20;99.90
6948;DHT22;3513;47.664;9.162;2024-02-21T09:12:28;6.20;99.90
6948;DHT22;3513;47.664;9.162;2024-02-21T09:14:54;6.40;99.90
6948;DHT22;3513;47.664;9.162;2024-02-21T09:17:20;6.40;99.90
6948;DHT22;3513;47.664;9.162;2024-02-21T09:19:50;6.40;99.90
6948;DHT22;3513;47.664;9.162;2024-02-21T09:22:16;6.50;99.90
6948;DHT22;3513;47.664;9.162;2024-02-21T09:24:41;6.60;99.90
6948;DHT22;3513;47.664;9.162;2024-02-21T09:27:07;6.70;99.90
6948;DHT22;3513;47.664;9.162;2024-02-21T09:29:32;6.70;99.90
6948;DHT22;3513;47.664;9.162;2024-02-21T09:32:01;6.70;99.90
6948;DHT22;3513;47.664;9.162;2024-02-21T09:34:28;6.80;99.90
6948;DHT22;3513;47.664;9.162;2024-02-21T09:36:54;6.90;99.90
6948;DHT22;3513;47.664;9.162;2024-02-21T09:39:19;7.10;99.90
6948;DHT22;3513;47.664;9.162;2024-02-21T09:41:50;7.10;99.90
6948;DHT22;3513;47.664;9.162;2024-02-21T09:44:21;7.10;99.90
6948;DHT22;3513;47.664;9.162;2024-02-21T09:46:57;7.10;99.90
6948;DHT22;3513;47.664;9.162;2024-02-21T09:49:32;7.10;99.90
6948;DHT22;3513;47.664;9.162;2024-02-21T09:52:00;7.30;99.90
6948;DHT22;3513;47.664;9.162;2024-02-21T09:54:28;7.50;99.90
6948;DHT22;3513;47.664;9.162;2024-02-21T09:56:55;7.60;99.60
6948;DHT22;3513;47.664;9.162;2024-02-21T09:59:21;7.70;98.60
6948;DHT22;3513;47.664;9.162;2024-02-21T10:01:47;7.70;98.80
6948;DHT22;3513;47.664;9.162;2024-02-21T10:04:13;7.80;98.90
6948;DHT22;3513;47.664;9.162;2024-02-21T10:06:39;8.00;99.00
6948;DHT22;3513;47.664;9.162;2024-02-21T10:09:06;8.20;98.30
6948;DHT22;3513;47.664;9.162;2024-02-21T10:11:32;8.40;97.80
6948;DHT22;3513;47.664;9.162;2024-02-21T10:14:07;8.50;96.60
6948;DHT22;3513;47.664;9.162;2024-02-21T10:16:33;8.50;95.50
6948;DHT22;3513;47.664;9.162;2024-02-21T10:18:59;8.60;96.10
6948;DHT22;3513;47.664;9.162;2024-02-21T10:21:25;8.60;94.90
6948;DHT22;3513;47.664;9.162;2024-02-21T10:23:51;8.70;94.00
6948;DHT22;3513;47.664;9.162;2024-02-21T10:26:18;8.70;94.20
6948;DHT22;3513;47.664;9.162;2024-02-21T10:28:45;8.80;94.20
6948;DHT22;3513;47.664;9.162;2024-02-21T10:31:26;8.90;93.80
6948;DHT22;3513;47.664;9.162;2024-02-21T10:33:55;8.90;93.80
6948;DHT22;3513;47.664;9.162;2024-02-21T10:36:21;9.10;93.70
6948;DHT22;3513;47.664;9.162;2024-02-21T10:38:47;9.20;93.40
6948;DHT22;3513;47.664;9.162;2024-02-21T10:41:14;9.40;93.50
6948;DHT22;3513;47.664;9.162;2024-02-21T10:43:41;9.60;93.20
6948;DHT22;3513;47.664;9.162;2024-02-21T10:46:09;9.80;93.10
6948;DHT22;3513;47.664;9.162;2024-02-21T10:48:46;10.00;91.80
6948;DHT22;3513;47.664;9.162;2024-02-21T10:51:20;10.20;91.30
6948;DHT22;3513;47.664;9.162;2024-02-21T10:56:29;10.60;90.30
6948;DHT22;3513;47.664;9.162;2024-02-21T10:58:58;10.80;89.10
6948;DHT22;3513;47.664;9.162;2024-02-21T11:01:24;10.90;88.80
6948;DHT22;3513;47.664;9.162;2024-02-21T11:03:53;11.00;88.70
6948;DHT22;3513;47.664;9.162;2024-02-21T11:06:20;11.10;88.80
6948;DHT22;3513;47.664;9.162;2024-02-21T11:08:45;11.10;88.70
6948;DHT22;3513;47.664;9.162;2024-02-21T11:11:14;11.20;88.90
6948;DHT22;3513;47.664;9.162;2024-02-21T11:13:46;11.20;88.20
6948;DHT22;3513;47.664;9.162;2024-02-21T11:16:22;11.30;88.60
6948;DHT22;3513;47.664;9.162;2024-02-21T11:18:47;11.30;86.50
6948;DHT22;3513;47.664;9.162;2024-02-21T11:21:13;11.30;86.40
6948;DHT22;3513;47.664;9.162;2024-02-21T11:23:39;11.30;86.20
6948;DHT22;3513;47.664;9.162;2024-02-21T11:26:17;11.50;87.40
6948;DHT22;3513;47.664;9.162;2024-02-21T11:28:44;11.40;84.00
6948;DHT22;3513;47.664;9.162;2024-02-21T11:31:13;11.40;84.10
6948;DHT22;3513;47.664;9.162;2024-02-21T11:33:43;11.40;82.60
6948;DHT22;3513;47.664;9.162;2024-02-21T11:36:25;11.40;82.90
6948;DHT22;3513;47.664;9.162;2024-02-21T11:38:52;11.50;82.10
6948;DHT22;3513;47.664;9.162;2024-02-21T11:41:18;11.60;81.00
6948;DHT22;3513;47.664;9.162;2024-02-21T11:43:44;11.60;80.90
6948;DHT22;3513;47.664;9.162;2024-02-21T11:46:09;11.40;79.60
6948;DHT22;3513;47.664;9.162;2024-02-21T11:48:35;11.30;80.90
6948;DHT22;3513;47.664;9.162;2024-02-21T11:51:01;11.20;80.10
6948;DHT22;3513;47.664;9.162;2024-02-21T11:53:28;11.20;80.90
6948;DHT22;3513;47.664;9.162;2024-02-21T11:55:56;11.00;80.50
6948;DHT22;3513;47.664;9.162;2024-02-21T11:58:22;11.00;80.30
6948;DHT22;3513;47.664;9.162;2024-02-21T12:00:48;11.20;80.70
6948;DHT22;3513;47.664;9.162;2024-02-21T12:03:14;11.30;80.40
6948;DHT22;3513;47.664;9.162;2024-02-21T12:05:41;11.40;79.90
6948;DHT22;3513;47.664;9.162;2024-02-21T12:08:06;11.50;79.20
6948;DHT22;3513;47.664;9.162;2024-02-21T12:10:35;11.50;78.20
6948;DHT22;3513;47.664;9.162;2024-02-21T12:13:10;11.50;78.40
6948;DHT22;3513;47.664;9.162;2024-02-21T12:15:38;11.50;78.10
6948;DHT22;3513;47.664;9.162;2024-02-21T12:18:05;11.70;77.80
6948;DHT22;3513;47.664;9.162;2024-02-21T12:20:30;11.70;77.10
6948;DHT22;3513;47.664;9.162;2024-02-21T12:23:00;11.80;76.60
6948;DHT22;3513;47.664;9.162;2024-02-21T12:25:26;11.60;78.10
6948;DHT22;3513;47.664;9.162;2024-02-21T12:27:53;11.60;77.40
6948;DHT22;3513;47.664;9.162;2024-02-21T12:30:19;11.60;78.10
6948;DHT22;3513;47.664;9.162;2024-02-21T12:32:45;11.60;77.30
6948;DHT22;3513;47.664;9.162;2024-02-21T12:35:11;11.70;75.30
6948;DHT22;3513;47.664;9.162;2024-02-21T12:37:37;11.70;74.50
6948;DHT22;3513;47.664;9.162;2024-02-21T12:40:05;11.70;72.80
6948;DHT22;3513;47.664;9.162;2024-02-21T12:42:32;11.70;73.60
6948;DHT22;3513;47.664;9.162;2024-02-21T12:44:58;11.80;72.10
6948;DHT22;3513;47.664;9.162;2024-02-21T12:47:24;11.90;73.70
6948;DHT22;3513;47.664;9.162;2024-02-21T12:49:52;12.00;72.20
6948;DHT22;3513;47.664;9.162;2024-02-21T12:52:18;12.00;72.70
6948;DHT22;3513;47.664;9.162;2024-02-21T12:54:43;12.10;72.30
6948;DHT22;3513;47.664;9.162;2024-02-21T12:57:09;12.20;71.80
6948;DHT22;3513;47.664;9.162;2024-02-21T12:59:34;12.30;72.40
6948;DHT22;3513;47.664;9.162;2024-02-21T13:02:00;12.40;73.40
6948;DHT22;3513;47.664;9.162;2024-02-21T13:04:26;12.60;74.40
6948;DHT22;3513;47.664;9.162;2024-02-21T13:06:51;12.80;75.60
6948;DHT22;3513;47.664;9.162;2024-02-21T13:09:17;13.00;75.30
6948;DHT22;3513;47.664;9.162;2024-02-21T13:11:43;13.00;75.50
6948;DHT22;3513;47.664;9.162;2024-02-21T13:14:11;13.10;76.60
6948;DHT22;3513;47.664;9.162;2024-02-21T13:16:37;13.20;75.70
6948;DHT22;3513;47.664;9.162;2024-02-21T13:19:08;13.30;73.70
6948;DHT22;3513;47.664;9.162;2024-02-21T13:21:36;13.40;74.60
6948;DHT22;3513;47.664;9.162;2024-02-21T13:24:02;13.50;74.30
6948;DHT22;3513;47.664;9.162;2024-02-21T13:26:28;13.60;73.40
6948;DHT22;3513;47.664;9.162;2024-02-21T13:28:54;13.70;73.40
6948;DHT22;3513;47.664;9.162;2024-02-21T13:31:20;13.70;73.70
6948;DHT22;3513;47.664;9.162;2024-02-21T13:33:46;13.80;73.30
6948;DHT22;3513;47.664;9.162;2024-02-21T13:36:12;13.70;73.70
6948;DHT22;3513;47.664;9.162;2024-02-21T13:38:38;13.80;74.40
6948;DHT22;3513;47.664;9.162;2024-02-21T13:41:06;13.80;72.70
6948;DHT22;3513;47.664;9.162;2024-02-21T13:43:33;13.80;73.70
6948;DHT22;3513;47.664;9.162;2024-02-21T13:46:00;13.80;72.90
6948;DHT22;3513;47.664;9.162;2024-02-21T13:48:30;13.80;73.00
6948;DHT22;3513;47.664;9.162;2024-02-21T13:50:56;13.90;72.70
6948;DHT22;3513;47.664;9.162;2024-02-21T13:53:22;14.10;72.50
6948;DHT22;3513;47.664;9.162;2024-02-21T13:55:48;14.30;70.80
6948;DHT22;3513;47.664;9.162;2024-02-21T13:58:15;14.40;69.90
6948;DHT22;3513;47.664;9.162;2024-02-21T14:00:41;14.60;70.90
6948;DHT22;3513;47.664;9.162;2024-02-21T14:03:06;14.80;70.00
6948;DHT22;3513;47.664;9.162;2024-02-21T14:05:32;14.90;69.20
6948;DHT22;3513;47.664;9.162;2024-02-21T14:07:59;15.10;69.00
6948;DHT22;3513;47.664;9.162;2024-02-21T14:10:24;15.30;68.00
6948;DHT22;3513;47.664;9.162;2024-02-21T14:12:50;15.30;66.70
6948;DHT22;3513;47.664;9.162;2024-02-21T14:15:16;15.40;66.30
6948;DHT22;3513;47.664;9.162;2024-02-21T14:17:44;15.50;66.10
6948;DHT22;3513;47.664;9.162;2024-02-21T14:20:10;15.70;66.00
6948;DHT22;3513;47.664;9.162;2024-02-21T14:22:35;15.90;65.50
6948;DHT22;3513;47.664;9.162;2024-02-21T14:25:03;16.00;64.60
6948;DHT22;3513;47.664;9.162;2024-02-21T14:27:31;16.00;63.90
6948;DHT22;3513;47.664;9.162;2024-02-21T14:29:56;16.00;63.20
6948;DHT22;3513;47.664;9.162;2024-02-21T14:32:22;16.00;63.10
6948;DHT22;3513;47.664;9.162;2024-02-21T14:34:47;16.00;64.10
6948;DHT22;3513;47.664;9.162;2024-02-21T14:37:14;15.90;62.80
6948;DHT22;3513;47.664;9.162;2024-02-21T14:39:41;15.80;62.80
6948;DHT22;3513;47.664;9.162;2024-02-21T14:42:06;15.60;63.00
6948;DHT22;3513;47.664;9.162;2024-02-21T14:44:35;15.50;63.30
6948;DHT22;3513;47.664;9.162;2024-02-21T14:47:00;15.40;63.50
6948;DHT22;3513;47.664;9.162;2024-02-21T14:49:26;15.20;63.50
6948;DHT22;3513;47.664;9.162;2024-02-21T14:51:53;14.80;64.00
6948;DHT22;3513;47.664;9.162;2024-02-21T14:54:20;14.60;65.10
6948;DHT22;3513;47.664;9.162;2024-02-21T14:56:45;14.40;66.20
6948;DHT22;3513;47.664;9.162;2024-02-21T14:59:12;14.10;66.40
6948;DHT22;3513;47.664;9.162;2024-02-21T15:01:38;13.80;66.40
6948;DHT22;3513;47.664;9.162;2024-02-21T15:04:04;13.60;68.10
6948;DHT22;3513;47.664;9.162;2024-02-21T15:06:30;13.40;68.30
6948;DHT22;3513;47.664;9.162;2024-02-21T15:08:57;13.30;68.60
6948;DHT22;3513;47.664;9.162;2024-02-21T15:11:23;13.20;68.90
6948;DHT22;3513;47.664;9.162;2024-02-21T15:13:49;12.90;69.70
6948;DHT22;3513;47.664;9.162;2024-02-21T15:16:14;12.70;68.90
6948;DHT22;3513;47.664;9.162;2024-02-21T15:18:41;12.50;70.90
6948;DHT22;3513;47.664;9.162;2024-02-21T15:21:07;12.50;71.50
6948;DHT22;3513;47.664;9.162;2024-02-21T15:23:33;12.40;71.80
6948;DHT22;3513;47.664;9.162;2024-02-21T15:25:58;12.40;72.40
6948;DHT22;3513;47.664;9.162;2024-02-21T15:28:26;12.30;72.90
6948;DHT22;3513;47.664;9.162;2024-02-21T15:30:54;12.40;73.00
6948;DHT22;3513;47.664;9.162;2024-02-21T15:33:19;12.40;72.50
6948;DHT22;3513;47.664;9.162;2024-02-21T15:35:45;12.30;72.10
6948;DHT22;3513;47.664;9.162;2024-02-21T15:38:10;12.30;72.60
6948;DHT22;3513;47.664;9.162;2024-02-21T15:40:36;12.30;73.00
6948;DHT22;3513;47.664;9.162;2024-02-21T15:43:03;12.20;72.90
6948;DHT22;3513;47.664;9.162;2024-02-21T15:45:28;12.20;73.50
6948;DHT22;3513;47.664;9.162;2024-02-21T15:47:54;12.20;74.00
6948;DHT22;3513;47.664;9.162;2024-02-21T15:50:20;12.20;74.10
6948;DHT22;3513;47.664;9.162;2024-02-21T15:52:45;12.10;74.90
6948;DHT22;3513;47.664;9.162;2024-02-21T15:55:11;11.90;75.30
6948;DHT22;3513;47.664;9.162;2024-02-21T15:57:38;11.90;76.80
6948;DHT22;3513;47.664;9.162;2024-02-21T16:00:05;11.70;77.80
6948;DHT22;3513;47.664;9.162;2024-02-21T16:02:31;11.60;79.40
6948;DHT22;3513;47.664;9.162;2024-02-21T16:04:57;11.50;80.20
6948;DHT22;3513;47.664;9.162;2024-02-21T16:07:22;11.30;81.10
6948;DHT22;3513;47.664;9.162;2024-02-21T16:09:48;11.20;83.00
6948;DHT22;3513;47.664;9.162;2024-02-21T16:12:14;11.00;83.80
6948;DHT22;3513;47.664;9.162;2024-02-21T16:14:40;10.90;84.00
6948;DHT22;3513;47.664;9.162;2024-02-21T16:17:05;10.70;85.10
6948;DHT22;3513;47.664;9.162;2024-02-21T16:19:31;10.60;85.80